Historyczne dane pomiarowe

Dodano dane terminowe – wersja testowa.

Dane z okresu 1951-2019

Wersja bazy: 1.34 [2019-03-16, lista zmian], aktualizacja planowana na 2019-04-15

Dane meteo z obszaru Polski uzyskane na podstawie danych udostępnionych przez Instytut Meteorologii i Gospodarki Wodnej – Państwowy Instytut Badawczy.

 

Wybierz Datę:    

       

TemperaturaWilgotnośćWiatrCiśnienieOpadyŚniegCzas trwania zjawisk
 Stacja t tx tn tng RH VA  wxwx mslp ppp RRR   cm mm wxwxwxwxwxwxwx
1961-08-14 14.0 19.6 8.8- 77.8- 5.0 2.7---- 0.0------------
1961-08-13 13.6 18.4 11.1- 78.3- 4.3 3.3---- 0.0------------
1961-08-12 17.8 21.8 13.3- 86.3- 7.7 1.3---- 1.7------------
1961-08-11 17.6 21.6 13.5- 87.5- 8.0 2.3---- 6.4------------
1961-08-10 18.5 23.2 12.5- 66.8- 5.3 1.7---- 5.3------------
1961-08-09 18.9 26.2 12.3- 75.3- 4.7 1.7---- 0.0------------
1961-08-08 16.0 20.9 12.5- 80.3- 4.7 2.0---- 0.0------------
1961-08-07 17.9 21.8 15.9- 86.3- 6.7 3.7---- 0.3------------
1961-08-06 21.6 29.5 11.0- 71.8- 4.0 3.3---- 3.3------------
1961-08-05 15.5 21.4 13.1- 78.8- 3.7 4.0---- 0.0------------
1961-08-04 15.3 19.7 9.2- 77.0- 4.7 3.3---- 0.0------------
1961-08-03 16.1 21.3 12.3- 81.0- 7.0 1.7---- 0.0------------
1961-08-02 17.5 23.2 9.4- 75.3- 3.3 2.7---- 0.0------------
1961-08-01 13.6 14.8 11.6- 87.0- 6.0 7.0---- 1.1------------
1961-07-31 15.5 18.7 12.3- 83.5- 7.7 5.0---- 2.1------------
1961-07-30 13.4 15.0 11.9- 94.8- 8.0 4.3---- 26.2------------
1961-07-29 14.6 19.6 12.7- 89.3- 7.3 2.0---- 2.4------------
1961-07-28 16.1 19.0 15.3- 89.0- 8.0 3.0---- 17.7------------
1961-07-27 18.0 23.6 14.2- 79.3- 7.7 3.7---- 0.1------------
1961-07-26 14.7 17.2 12.1- 87.5- 8.0 4.3---- 1.6------------
1961-07-25 13.9 18.6 10.0- 79.5- 7.3 3.7---- 0.0------------
1961-07-24 14.9 19.9 13.0- 81.8- 7.0 3.7---- 0.0------------
1961-07-23 14.5 16.9 12.8- 85.0- 7.7 5.0---- 0.0------------
1961-07-22 14.8 17.8 12.7- 88.8- 7.3 3.3---- 10.4------------
1961-07-21 15.0 20.1 11.0- 84.5- 4.3 3.3---- 5.2------------
1961-07-20 16.1 22.6 9.0- 80.0- 5.0 2.0---- 0.9------------
1961-07-19 14.7 21.5 9.2- 86.5- 5.3 2.0---- 0.3------------
1961-07-18 14.8 19.4 12.0- 81.0- 6.7 2.3---- 0.0------------
1961-07-17 16.1 22.7 10.8- 82.8- 7.0 3.7---- 3.5------------
1961-07-16 15.6 21.5 8.5- 91.0- 7.0 2.0---- 13.8------------
1961-07-15 17.3 22.8 7.9- 72.0- 4.3 2.7---- 0.0------------
1961-07-14 15.1 22.3 13.0- 78.5- 7.3 5.0---- 0.0------------
1961-07-13 20.3 27.3 8.5- 77.0- 7.0 2.7---- 0.0------------
1961-07-12 14.5 19.3 8.4- 91.8- 6.7 1.3---- 4.3------------
1961-07-11 14.2 19.9 9.0- 74.8- 4.3 3.3---- 0.3------------
1961-07-10 13.8 18.7 11.5- 82.3- 6.0 3.3---- 3.3------------
1961-07-09 17.0 23.4 10.4- 72.0- 4.7 4.7---- 0.3------------
1961-07-08 13.9 18.5 9.9- 81.0- 6.3 3.0---- 0.0------------
1961-07-07 13.7 18.7 8.3- 71.5- 4.7 5.3---- 0.0------------
1961-07-06 12.4 18.3 6.4- 72.3- 5.3 2.3---- 0.0------------
1961-07-05 13.6 18.5 11.0- 73.8- 5.7 6.0---- 0.0------------
1961-07-04 19.2 24.6 16.2- 70.8- 6.0 3.0---- 0.5------------
1961-07-03 23.1 30.2 9.4- 59.8- 1.7 3.0---- 1.0------------
1961-07-02 20.8 28.8 8.8- 62.3- 0.0 2.0---- 0.0------------
1961-07-01 16.5 22.4 9.5- 87.5- 3.7 1.7---- 0.0------------
1961-06-30 17.1 22.8 8.1- 72.8- 0.3 4.0---- 0.0------------
1961-06-29 13.0 17.1 8.6- 86.8- 6.7 2.7---- 0.0------------
1961-06-28 13.6 21.5 10.2- 84.5- 5.3 4.3---- 11.5------------
1961-06-27 22.6 31.3 12.7- 68.8- 6.3 3.0---- 2.3------------
1961-06-26 20.9 26.8 15.1- 59.8- 0.0 4.3---- 0.0------------
1961-06-25 19.5 25.5 13.4- 65.5- 5.3 5.3---- 0.0------------
1961-06-24 15.5 20.8 11.5- 71.3- 6.3 5.7---- 0.0------------
1961-06-23 16.4 23.2 10.9- 74.5- 5.3 2.3---- 0.0------------
1961-06-22 14.4 20.0 8.1- 72.3- 3.7 2.7---- 12.4------------
1961-06-21 14.2 20.2 5.6- 74.5- 6.3 5.0---- 3.7------------
1961-06-20 13.5 18.5 8.8- 66.3- 2.3 5.7---- 0.0------------
1961-06-19 16.0 20.8 14.0- 71.8- 3.7 5.0---- 0.0------------
1961-06-18 18.8 24.6 12.4- 73.0- 7.7 4.0---- 0.2------------
1961-06-17 14.4 19.9 11.2- 87.0- 7.0 3.0---- 1.3------------
1961-06-16 13.2 16.7 11.5- 88.5- 8.0 7.3---- 5.2------------
674.4 ms

 

Źródłem pochodzenia danych jest Instytut Meteorologii i Gospodarki Wodnej – Państwowy Instytut Badawczy. Dane Instytutu Meteorologii i Gospodarki Wodnej – Państwowego Instytutu Badawczego zostały przetworzone.

Dane źródłowe można odnaleźć na stronie https://dane.imgw.pl